Thursday, August 24, 2017, 1:04 AM EDT

KSHD, Staunton / Shenandoah

Location: Weyers Cave, VA, United States Lat: 38.267
Local Time: 1:04 AM EDT ( 5:04 GMT) Lon: -78.9
Time Zone: US/Eastern Elev: 1200 ft

Show me the last for .
Show Decoded

2017-08-24 00:35 METAR KSHD 240435Z AUTO 01005KT 10SM SCT080 21/13 A3000 RMK AO2 T02050131 =
2017-08-24 00:15 METAR KSHD 240415Z AUTO 02006KT 10SM OVC090 21/14 A3000 RMK AO2 T02080135 =
2017-08-23 23:55 METAR KSHD 240355Z AUTO 01006KT 10SM OVC085 21/14 A2999 RMK AO2 T02110138 =
2017-08-23 23:35 METAR KSHD 240335Z AUTO 03007KT 10SM OVC085 21/14 A2999 RMK AO2 T02130143 =
2017-08-23 23:15 METAR KSHD 240315Z AUTO 02004KT 10SM SCT050 SCT070 OVC085 22/14 A2998 RMK AO2
                 T02200142 =
2017-08-23 22:55 METAR KSHD 240255Z AUTO 02005KT 10SM SCT050 BKN070 OVC085 23/13 A2998 RMK AO2
                 T02260134 =
2017-08-23 22:35 METAR KSHD 240235Z AUTO 01004KT 10SM OVC060 23/13 A2998 RMK AO2 T02300129 =
2017-08-23 22:15 METAR KSHD 240215Z AUTO 35005KT 10SM BKN060 OVC075 23/13 A2997 RMK AO2 T02330129
                 =
2017-08-23 21:55 METAR KSHD 240155Z AUTO 35006KT 10SM BKN060 BKN075 OVC085 24/13 A2996 RMK AO2
                 T02350132 =
2017-08-23 21:35 METAR KSHD 240135Z AUTO 36005KT 10SM BKN060 OVC075 24/16 A2996 RMK AO2 T02350156
                 =
2017-08-23 21:15 METAR KSHD 240115Z AUTO 36003KT 10SM OVC060 23/18 A2995 RMK AO2 T02340178 =
2017-08-23 20:55 METAR KSHD 240055Z AUTO 03004KT 10SM OVC065 24/18 A2994 RMK AO2 T02380183 =
2017-08-23 20:35 METAR KSHD 240035Z AUTO 03005KT 10SM OVC065 24/19 A2994 RMK AO2 T02370191 =
2017-08-23 20:15 METAR KSHD 240015Z AUTO 00000KT 10SM OVC065 24/19 A2993 RMK AO2 T02400194 =
2017-08-23 19:55 METAR KSHD 232355Z AUTO 06004KT 10SM BKN065 BKN080 BKN090 25/19 A2993 RMK AO2
                 T02460192 10293 20246 =
2017-08-23 19:35 METAR KSHD 232335Z AUTO 06003KT 10SM OVC070 25/17 A2992 RMK AO2 T02530167 =
2017-08-23 19:15 METAR KSHD 232315Z AUTO 04006KT 10SM OVC075 26/16 A2991 RMK AO2 LTG DSNT SE
                 T02580161 =
2017-08-23 18:55 METAR KSHD 232255Z AUTO 02006KT 10SM OVC075 27/16 A2990 RMK AO2 T02670156 =
2017-08-23 18:35 METAR KSHD 232235Z AUTO 33004KT 10SM OVC080 28/15 A2990 RMK AO2 T02750147 =
2017-08-23 18:15 METAR KSHD 232215Z AUTO 35006KT 10SM BKN070 BKN080 28/14 A2989 RMK AO2 T02790142
                 =
2017-08-23 17:55 METAR KSHD 232155Z AUTO 34007KT 10SM BKN080 28/15 A2989 RMK AO2 T02770145 =
2017-08-23 17:35 METAR KSHD 232135Z AUTO 35004KT 10SM BKN080 OVC090 28/15 A2989 RMK AO2 T02830154
                 =
2017-08-23 17:15 METAR KSHD 232115Z AUTO 35005KT 10SM BKN080 28/15 A2990 RMK AO2 T02790148 =
2017-08-23 16:55 METAR KSHD 232055Z AUTO 35005KT 10SM SCT050 BKN080 28/15 A2989 RMK AO2 T02830145
                 =
2017-08-23 16:35 METAR KSHD 232035Z AUTO 35006KT 10SM SCT050 BKN080 29/15 A2989 RMK AO2 T02850150
                 =
2017-08-23 16:15 METAR KSHD 232015Z AUTO 02004KT 10SM SCT050 SCT065 29/17 A2990 RMK AO2 T02870170
                 =
2017-08-23 15:55 METAR KSHD 231955Z AUTO 05003KT 10SM SCT050 SCT065 28/18 A2990 RMK AO2 T02790175
                 =
2017-08-23 15:35 METAR KSHD 231935Z AUTO 00000KT 10SM SCT050 28/17 A2990 RMK AO2 T02830174 =
2017-08-23 15:15 METAR KSHD 231915Z AUTO 11003KT 10SM SCT043 SCT050 28/18 A2991 RMK AO2 T02800182
                 =
2017-08-23 14:55 METAR KSHD 231855Z AUTO 05003KT 10SM SCT037 SCT048 BKN055 27/19 A2991 RMK AO2
                 T02720187 =
2017-08-23 14:35 METAR KSHD 231835Z AUTO 07004KT 10SM SCT043 SCT050 SCT070 27/19 A2992 RMK AO2
                 T02730192 =
2017-08-23 14:15 METAR KSHD 231815Z AUTO 02004KT 10SM SCT035 BKN045 OVC085 26/19 A2993 RMK AO2
                 T02610189 =
2017-08-23 13:55 METAR KSHD 231755Z AUTO 00000KT 10SM SCT030 BKN038 BKN060 27/19 A2993 RMK AO2
                 T02680187 10273 20217 =
2017-08-23 13:35 METAR KSHD 231735Z AUTO 17003KT 10SM BKN030 BKN035 BKN085 26/19 A2994 RMK AO2
                 T02630189 =
2017-08-23 13:15 METAR KSHD 231715Z AUTO 12003KT 10SM SCT025 SCT033 BKN050 26/19 A2994 RMK AO2
                 T02560192 =
2017-08-23 12:55 METAR KSHD 231655Z AUTO 07003KT 10SM SCT070 26/20 A2995 RMK AO2 T02570195 =
2017-08-23 12:35 METAR KSHD 231635Z AUTO 09004KT 10SM SCT022 BKN055 OVC070 24/20 A2996 RMK AO2
                 T02430197 =
2017-08-23 12:15 METAR KSHD 231615Z AUTO 04003KT 10SM SCT022 SCT029 OVC060 24/19 A2996 RMK AO2
                 T02420188 =
2017-08-23 11:55 METAR KSHD 231555Z AUTO 05004KT 10SM SCT022 BKN060 OVC080 24/19 A2996 RMK AO2
                 T02430186 =
2017-08-23 11:35 METAR KSHD 231535Z AUTO 00000KT 10SM SCT022 SCT060 OVC080 25/20 A2996 RMK AO2
                 T02470196 =
2017-08-23 11:15 METAR KSHD 231515Z AUTO 00000KT 10SM OVC070 24/20 A2996 RMK AO2 T02400198 =
2017-08-23 10:55 METAR KSHD 231455Z AUTO 00000KT 10SM SCT049 SCT065 OVC070 24/20 A2996 RMK AO2
                 T02380199 =
2017-08-23 10:35 METAR KSHD 231435Z AUTO 36003KT 10SM SCT049 OVC065 24/20 A2996 RMK AO2 T02390196
                 =
2017-08-23 10:15 METAR KSHD 231415Z AUTO 03003KT 10SM OVC065 24/20 A2995 RMK AO2 T02380199 =
2017-08-23 09:55 METAR KSHD 231355Z AUTO 03004KT 10SM OVC065 23/20 A2994 RMK AO2 T02330197 =
2017-08-23 09:35 METAR KSHD 231335Z AUTO 00000KT 4SM HZ OVC065 23/20 A2995 RMK AO2 T02300196 =
2017-08-23 09:15 METAR KSHD 231315Z AUTO 00000KT 10SM OVC065 23/19 A2994 RMK AO2 T02270194 =
2017-08-23 08:55 METAR KSHD 231255Z AUTO 00000KT 10SM OVC055 23/19 A2994 RMK AO2 T02250194 =
2017-08-23 08:35 METAR KSHD 231235Z AUTO 00000KT 10SM SCT049 OVC055 22/20 A2994 RMK AO2 LTG DSNT
                 SE T02190195 =
2017-08-23 08:15 METAR KSHD 231215Z AUTO 00000KT 10SM BKN040 BKN049 OVC055 22/20 A2993 RMK AO2
                 T02190197 =
2017-08-23 07:55 METAR KSHD 231155Z AUTO 35003KT 10SM OVC040 22/20 A2993 RMK AO2 T02190195 10249
                 20205 =
2017-08-23 07:35 METAR KSHD 231135Z AUTO 34004KT 10SM BKN040 OVC048 22/19 A2993 RMK AO2 T02200194
                 =
2017-08-23 07:15 METAR KSHD 231115Z AUTO 34004KT 10SM -RA BKN044 OVC050 22/20 A2992 RMK AO2
                 T02190196 =
2017-08-23 06:55 METAR KSHD 231055Z AUTO 00000KT 10SM OVC044 21/19 A2991 RMK AO2 T02100189 =
2017-08-23 06:35 METAR KSHD 231035Z AUTO 00000KT 10SM BKN048 OVC060 21/19 A2991 RMK AO2 T02100188
                 =
2017-08-23 06:15 METAR KSHD 231015Z AUTO 00000KT 10SM BKN060 21/19 A2990 RMK AO2 T02060186 =
2017-08-23 05:55 METAR KSHD 230955Z AUTO 00000KT 10SM CLR 22/18 A2990 RMK AO2 T02230183 =
2017-08-23 05:35 METAR KSHD 230935Z AUTO 00000KT 10SM SCT110 21/19 A2990 RMK AO2 T02120187 =
2017-08-23 05:15 METAR KSHD 230915Z AUTO 00000KT 10SM CLR 22/19 A2990 RMK AO2 T02190186 =
2017-08-23 04:55 METAR KSHD 230855Z AUTO 00000KT 10SM CLR 22/18 A2990 RMK AO2 T02240184 =
2017-08-23 04:35 METAR KSHD 230835Z AUTO 15003KT 10SM CLR 22/18 A2990 RMK AO2 T02220183 =
2017-08-23 04:15 METAR KSHD 230815Z AUTO 00000KT 10SM CLR 23/18 A2989 RMK AO2 T02270179 =
2017-08-23 03:55 METAR KSHD 230755Z AUTO 00000KT 10SM CLR 24/18 A2989 RMK AO2 T02410178 =
2017-08-23 03:35 METAR KSHD 230735Z AUTO 29003KT 10SM SCT120 24/18 A2990 RMK AO2 T02400180 =
2017-08-23 03:15 METAR KSHD 230715Z AUTO 29005KT 10SM CLR 25/18 A2990 RMK AO2 T02480178 =
2017-08-23 02:55 METAR KSHD 230655Z AUTO 28005KT 10SM CLR 23/18 A2991 RMK AO2 T02330181 =
2017-08-23 02:35 METAR KSHD 230635Z AUTO 27003KT 10SM SCT120 24/18 A2991 RMK AO2 T02420182 =
2017-08-23 02:15 METAR KSHD 230615Z AUTO 00000KT 10SM SCT047 BKN110 23/19 A2991 RMK AO2 T02260191
                 =
2017-08-23 01:55 METAR KSHD 230555Z AUTO 00000KT 10SM SCT110 23/19 A2991 RMK AO2 T02340190 10290
                 20225 403290174 =
2017-08-23 01:15 METAR KSHD 230515Z AUTO 00000KT 10SM CLR 23/19 A2990 RMK AO2 T02320191 =

Support USWX by starting your Amazon purchase here.